Time;durP1;ratioP1;P1;durP2;ratioP2;P2;SDS_P1;SDS_P2;PMS_P1;PMS_P2;Temp;Humidity;BMP_temperature;BMP_pressure;BME280_temperature;BME280_humidity;BME280_pressure;Samples;Min_cycle;Max_cycle;Signal;HPM_P1;HPM_P2
2023/10/19 00:00:59;;;;;;;4.83;2.20;;;;;;;7.98;100.00;101430.19;2070731;28;20207;-61
2023/10/19 00:02:00;;;;;;;4.83;1.87;;;;;;;8.05;100.00;101446.72;2070768;28;20541;-61
2023/10/19 00:03:03;;;;;;;2.90;1.77;;;;;;;7.68;100.00;101393.16;2070914;28;20928;-60
2023/10/19 00:04:07;;;;;;;5.93;2.30;;;;;;;7.98;100.00;101448.72;2070887;28;20617;-61
2023/10/19 00:05:09;;;;;;;3.83;2.10;;;;;;;7.64;100.00;101392.34;2070458;28;20453;-60
2023/10/19 00:06:11;;;;;;;4.93;2.80;;;;;;;8.02;100.00;101446.75;2069595;28;21043;-61
2023/10/19 00:07:15;;;;;;;4.13;2.47;;;;;;;8.01;100.00;101453.44;2069690;28;20471;-60
2023/10/19 00:08:23;;;;;;;4.53;2.17;;;;;;;7.59;100.00;101390.00;2069741;28;20925;-60
2023/10/19 00:09:23;;;;;;;3.27;2.00;;;;;;;8.03;100.00;101451.06;2070969;28;20466;-60
2023/10/19 00:10:26;;;;;;;3.63;2.03;;;;;;;7.97;100.00;101447.94;2069900;28;21096;-60
2023/10/19 00:11:27;;;;;;;4.10;2.50;;;;;;;8.01;100.00;101445.97;2070198;28;20561;-60
2023/10/19 00:12:27;;;;;;;3.90;2.03;;;;;;;7.97;100.00;101447.94;2070644;28;20446;-60
2023/10/19 00:13:29;;;;;;;5.60;2.57;;;;;;;8.00;100.00;101449.88;2070406;28;20443;-60
2023/10/19 00:14:29;;;;;;;3.00;2.03;;;;;;;7.98;100.00;101452.28;2069809;28;20208;-61
2023/10/19 00:15:39;;;;;;;2.47;1.77;;;;;;;7.64;100.00;101397.88;2065603;28;20960;-60
2023/10/19 00:16:40;;;;;;;3.17;2.03;;;;;;;7.90;100.00;101442.41;2066244;28;20254;-60
2023/10/19 00:17:44;;;;;;;4.13;2.20;;;;;;;7.97;100.00;101447.13;2070325;28;20547;-60
2023/10/19 00:18:48;;;;;;;2.75;1.88;;;;;;;7.95;100.00;101453.03;2070253;28;20190;-60
2023/10/19 00:20:05;;;;;;;3.43;1.87;;;;;;;7.93;100.00;101447.13;2070328;28;20197;-60
2023/10/19 00:21:20;;;;;;;4.93;1.80;;;;;;;7.78;100.00;101436.47;2070682;28;20829;-61
2023/10/19 00:22:21;;;;;;;4.10;2.23;;;;;;;7.56;100.00;101410.88;2069626;28;20816;-60
2023/10/19 00:23:30;;;;;;;3.05;1.88;;;;;;;7.82;100.00;101445.56;2069300;28;20434;-60
2023/10/19 00:24:31;;;;;;;5.33;2.70;;;;;;;7.75;100.00;101438.06;2070423;28;20168;-60
2023/10/19 00:25:35;;;;;;;6.93;3.17;;;;;;;7.76;100.00;101447.13;2068800;28;20908;-61
2023/10/19 00:26:36;;;;;;;4.93;2.00;;;;;;;7.40;100.00;101399.44;2062640;28;20189;-60
2023/10/19 00:27:36;;;;;;;2.73;1.80;;;;;;;7.70;100.00;101449.47;2070742;28;20703;-60
2023/10/19 00:28:38;;;;;;;2.80;1.80;;;;;;;7.57;100.00;101436.47;2070515;28;20203;-60
2023/10/19 00:29:47;;;;;;;4.35;1.95;;;;;;;7.64;100.00;101450.28;2070329;28;20204;-60
2023/10/19 00:30:53;;;;;;;4.82;2.50;;;;;;;7.40;100.00;101427.00;2070209;28;20283;-60
2023/10/19 00:31:53;;;;;;;5.80;2.50;;;;;;;7.57;100.00;101447.50;2064514;28;20576;-60
2023/10/19 00:32:54;;;;;;;2.67;1.43;;;;;;;7.47;100.00;101440.81;2065363;28;20229;-60
2023/10/19 00:33:56;;;;;;;3.90;1.60;;;;;;;7.07;100.00;101394.22;2070959;28;20182;-60
2023/10/19 00:34:56;;;;;;;3.72;1.55;;;;;;;7.37;100.00;101446.28;2086873;28;20457;-60
2023/10/19 00:37:07;;;;;;;2.33;1.50;;;;;;;7.27;100.00;101428.53;2085813;28;20265;-61
2023/10/19 00:38:21;;;;;;;4.88;1.75;;;;;;;7.06;100.00;101400.94;2078902;28;20176;-60
2023/10/19 00:39:23;;;;;;;3.80;2.25;;;;;;;7.35;100.00;101457.72;2086268;28;20170;-60
2023/10/19 00:40:34;;;;;;;3.65;1.98;;;;;;;7.25;100.00;101430.13;2086501;28;20180;-61
2023/10/19 00:41:35;;;;;;;3.25;1.55;;;;;;;7.37;100.00;101457.31;2086424;28;20199;-60
2023/10/19 00:42:38;;;;;;;2.63;1.43;;;;;;;6.91;100.00;101395.75;2087235;28;20198;-61
2023/10/19 00:43:44;;;;;;;3.30;1.73;;;;;;;7.14;100.00;101437.56;2087075;28;20200;-60
2023/10/19 00:44:49;;;;;;;2.85;1.52;;;;;;;7.20;100.00;101455.31;2077995;28;20200;-60
2023/10/19 00:45:52;;;;;;;6.53;2.17;;;;;;;7.20;100.00;101458.88;2078391;28;20612;-60
2023/10/19 00:47:02;;;;;;;3.00;1.83;;;;;;;6.64;100.00;101377.94;2086572;28;20243;-61
2023/10/19 00:48:04;;;;;;;3.35;2.35;;;;;;;6.69;100.00;101385.84;2080253;28;20283;-61
2023/10/19 00:49:05;;;;;;;2.38;1.70;;;;;;;7.16;100.00;101449.78;2087944;28;20203;-61
2023/10/19 00:50:15;;;;;;;2.85;1.63;;;;;;;6.89;100.00;101411.91;2090523;28;20204;-61
2023/10/19 00:52:32;;;;;;;3.20;1.90;;;;;;;7.21;100.00;101459.63;2086416;28;20234;-60
2023/10/19 00:53:41;;;;;;;2.87;1.90;;;;;;;7.19;100.00;101453.72;2077128;28;20589;-60
2023/10/19 00:55:52;;;;;;;3.42;1.85;;;;;;;7.19;100.00;101450.97;2081737;28;20355;-61
2023/10/19 00:56:55;;;;;;;3.70;1.77;;;;;;;6.93;100.00;101410.72;2085792;28;20258;-60
2023/10/19 00:57:57;;;;;;;5.72;1.80;;;;;;;6.97;100.00;101422.53;2086466;28;20180;-60
2023/10/19 01:00:31;;;;;;;4.30;1.90;;;;;;;7.20;100.00;101455.31;2068605;28;20213;-61
2023/10/19 01:01:40;;;;;;;2.75;1.95;;;;;;;7.14;100.00;101446.63;2066213;28;20462;-60
2023/10/19 01:02:45;;;;;;;5.63;2.22;;;;;;;7.17;100.00;101454.13;2072272;28;20227;-60
2023/10/19 01:03:52;;;;;;;4.03;2.05;;;;;;;7.15;100.00;101452.91;2078521;28;20160;-61
2023/10/19 01:05:00;;;;;;;3.78;1.95;;;;;;;7.10;100.00;101447.78;2086469;28;20569;-60
2023/10/19 01:06:05;;;;;;;5.28;2.10;;;;;;;6.66;100.00;101381.91;2085878;28;20192;-60
2023/10/19 01:07:15;;;;;;;3.85;2.03;;;;;;;7.12;100.00;101460.00;2087710;28;20730;-61
2023/10/19 01:08:31;;;;;;;4.55;1.58;;;;;;;7.10;100.00;101448.59;2086899;28;20603;-61
2023/10/19 01:09:35;;;;;;;5.75;2.08;;;;;;;6.85;100.00;101411.88;2076481;28;20184;-60
2023/10/19 01:10:35;;;;;;;3.63;2.17;;;;;;;7.12;100.00;101446.22;2077378;28;20212;-60
2023/10/19 01:11:36;;;;;;;2.90;1.50;;;;;;;7.11;100.00;101441.09;2085932;28;20669;-61
2023/10/19 01:12:40;;;;;;;2.77;1.80;;;;;;;7.13;100.00;101447.03;2088008;28;20172;-60
2023/10/19 01:13:44;;;;;;;2.55;1.70;;;;;;;7.11;100.00;101443.84;2087596;28;20192;-61
2023/10/19 01:14:45;;;;;;;3.70;1.90;;;;;;;7.12;100.00;101446.22;2086929;28;20663;-60
2023/10/19 01:15:49;;;;;;;7.27;2.00;;;;;;;7.13;100.00;101442.28;2086464;28;20562;-61
2023/10/19 01:16:49;;;;;;;4.30;2.05;;;;;;;7.13;100.00;101444.28;2086631;28;20192;-60
2023/10/19 01:17:52;;;;;;;3.03;1.60;;;;;;;7.14;100.00;101438.38;2086320;28;20287;-60
2023/10/19 01:18:56;;;;;;;2.15;1.42;;;;;;;7.14;100.00;101441.13;2086629;28;20192;-60
2023/10/19 01:19:58;;;;;;;4.50;1.65;;;;;;;7.15;100.00;101439.16;2088432;28;20203;-61
2023/10/19 01:21:04;;;;;;;3.25;1.85;;;;;;;7.18;100.00;101441.13;2085920;28;20635;-61
2023/10/19 01:22:04;;;;;;;2.80;1.67;;;;;;;7.08;100.00;101420.63;2076421;28;20226;-61
2023/10/19 01:24:08;;;;;;;2.50;1.70;;;;;;;7.21;100.00;101429.31;2087762;28;20187;-61
2023/10/19 01:25:10;;;;;;;2.78;1.80;;;;;;;6.96;100.00;101395.38;2079371;28;20200;-61
2023/10/19 01:26:13;;;;;;;3.67;1.70;;;;;;;7.19;100.00;101434.44;2085400;28;20230;-60
2023/10/19 01:27:14;;;;;;;4.97;2.00;;;;;;;7.22;100.00;101439.19;2077691;28;20236;-60
2023/10/19 01:28:17;;;;;;;10.57;1.57;;;;;;;7.22;100.00;101428.16;2077493;28;20196;-61
2023/10/19 01:29:26;;;;;;;3.88;1.83;;;;;;;7.22;100.00;101434.44;2087125;28;20753;-61
2023/10/19 01:30:27;;;;;;;4.15;2.00;;;;;;;7.20;100.00;101420.28;2086114;28;20616;-60
2023/10/19 01:32:30;;;;;;;5.17;2.03;;;;;;;7.05;100.00;101402.13;2082514;28;20948;-61
2023/10/19 01:33:30;;;;;;;2.17;1.35;;;;;;;7.18;100.00;101406.06;2086065;28;20200;-60
2023/10/19 01:34:33;;;;;;;3.80;2.00;;;;;;;7.04;100.00;101377.69;2086782;28;20220;-60
2023/10/19 01:36:54;;;;;;;2.97;1.73;;;;;;;7.01;100.00;101367.44;2086815;28;20180;-61
2023/10/19 01:37:55;;;;;;;2.95;1.98;;;;;;;7.11;100.00;101391.47;2078623;28;20196;-61
2023/10/19 01:39:00;;;;;;;3.50;2.10;;;;;;;7.37;100.00;101422.25;2085375;28;20227;-60
2023/10/19 01:40:01;;;;;;;2.58;1.60;;;;;;;7.39;100.00;101419.13;2077622;28;20201;-61
2023/10/19 01:41:19;;;;;;;2.63;1.93;;;;;;;7.39;100.00;101417.13;2077743;28;20655;-61
2023/10/19 01:42:19;;;;;;;4.45;2.13;;;;;;;7.36;100.00;101406.09;2092579;28;20207;-61
2023/10/19 01:43:30;;;;;;;4.00;1.77;;;;;;;6.99;100.00;101367.84;2089355;28;20188;-60
2023/10/19 01:44:31;;;;;;;2.17;1.45;;;;;;;7.41;100.00;101420.31;2086463;28;20199;-61
2023/10/19 01:45:33;;;;;;;3.58;1.92;;;;;;;7.44;100.00;101419.50;2086097;28;20211;-60
2023/10/19 01:46:35;;;;;;;2.50;1.55;;;;;;;7.14;100.00;101382.44;2086343;28;20200;-60
2023/10/19 01:47:35;;;;;;;4.38;2.05;;;;;;;7.41;100.00;101416.75;2086924;28;20600;-60
2023/10/19 01:48:37;;;;;;;4.40;2.40;;;;;;;7.47;100.00;101427.00;2085495;28;20198;-61
2023/10/19 01:49:38;;;;;;;3.30;1.98;;;;;;;7.48;100.00;101423.06;2086525;28;20215;-60
2023/10/19 01:50:39;;;;;;;3.00;2.03;;;;;;;7.20;100.00;101378.91;2077642;28;20241;-60
2023/10/19 01:51:40;;;;;;;6.15;2.38;;;;;;;7.44;100.00;101413.22;2061768;28;20735;-60
2023/10/19 01:52:40;;;;;;;4.17;2.03;;;;;;;7.52;100.00;101421.09;2075793;28;20588;-61
2023/10/19 01:53:44;;;;;;;4.40;2.43;;;;;;;7.54;100.00;101429.00;2086302;28;20231;-60
2023/10/19 01:54:45;;;;;;;3.95;2.35;;;;;;;7.55;100.00;101425.06;2077400;28;20253;-61
2023/10/19 01:55:47;;;;;;;4.03;3.03;;;;;;;7.36;100.00;101395.88;2077169;28;20201;-61
2023/10/19 01:56:50;;;;;;;4.00;2.40;;;;;;;7.45;100.00;101417.56;2086373;28;20191;-60
2023/10/19 01:57:51;;;;;;;5.30;2.35;;;;;;;7.20;100.00;101364.34;2087728;28;20183;-60
2023/10/19 01:58:52;;;;;;;3.47;1.90;;;;;;;7.63;100.00;101430.19;2094412;28;20262;-61
2023/10/19 01:59:52;;;;;;;3.67;2.45;;;;;;;7.65;100.00;101430.59;2086967;28;20186;-61
2023/10/19 02:01:00;;;;;;;6.70;3.10;;;;;;;7.58;100.00;101422.28;2086122;28;20207;-60
2023/10/19 02:02:02;;;;;;;4.35;2.58;;;;;;;7.44;100.00;101389.16;2086458;28;20287;-61
2023/10/19 02:03:07;;;;;;;3.75;2.42;;;;;;;7.65;100.00;101425.06;2092170;28;20226;-61
2023/10/19 02:04:08;;;;;;;3.80;2.83;;;;;;;7.61;100.00;101412.44;2089032;28;20378;-60
2023/10/19 02:05:15;;;;;;;6.95;3.22;;;;;;;7.70;100.00;101426.66;2090683;28;20207;-60
2023/10/19 02:06:26;;;;;;;4.32;2.67;;;;;;;7.60;100.00;101413.63;2091001;28;20626;-61
2023/10/19 02:07:27;;;;;;;3.28;2.08;;;;;;;7.73;100.00;101426.63;2085773;28;20249;-60
2023/10/19 02:08:27;;;;;;;4.70;2.42;;;;;;;7.72;100.00;101424.28;2086586;28;20257;-60
2023/10/19 02:09:30;;;;;;;4.80;2.93;;;;;;;7.65;100.00;101418.75;2085875;28;20176;-60
2023/10/19 02:10:32;;;;;;;4.20;2.40;;;;;;;7.62;100.00;101408.50;2086185;28;20649;-61
2023/10/19 02:11:32;;;;;;;4.97;2.70;;;;;;;7.68;100.00;101426.25;2085713;28;20180;-60
2023/10/19 02:12:34;;;;;;;5.53;2.40;;;;;;;7.34;100.00;101361.59;2086889;28;20177;-61
2023/10/19 02:13:35;;;;;;;4.10;2.85;;;;;;;7.71;100.00;101419.94;2086169;28;20266;-60
2023/10/19 02:14:37;;;;;;;5.15;2.25;;;;;;;7.71;100.00;101414.41;2086369;28;20192;-60
2023/10/19 02:15:37;;;;;;;3.38;2.03;;;;;;;7.71;100.00;101411.66;2086234;28;20192;-60
2023/10/19 02:16:38;;;;;;;5.10;2.03;;;;;;;7.51;100.00;101380.13;2089567;28;20199;-60
2023/10/19 02:17:39;;;;;;;4.57;2.23;;;;;;;7.62;100.00;101403.78;2083290;28;20276;-60
2023/10/19 02:18:41;;;;;;;4.03;2.13;;;;;;;7.40;100.00;101360.03;2068753;28;20185;-60
2023/10/19 02:19:43;;;;;;;3.65;2.22;;;;;;;7.70;100.00;101408.09;2077136;28;20714;-60
2023/10/19 02:20:48;;;;;;;3.40;2.13;;;;;;;7.61;100.00;101409.69;2086178;28;20176;-60
2023/10/19 02:21:52;;;;;;;2.95;2.10;;;;;;;7.73;100.00;101414.81;2078286;28;20662;-61
2023/10/19 02:22:52;;;;;;;3.33;2.17;;;;;;;7.72;100.00;101410.47;2085655;28;20596;-60
2023/10/19 02:23:53;;;;;;;4.47;3.10;;;;;;;7.72;100.00;101416.78;2085754;28;20890;-61
2023/10/19 02:24:53;;;;;;;4.70;2.43;;;;;;;7.51;100.00;101378.16;2085896;28;20197;-61
2023/10/19 02:25:54;;;;;;;3.27;2.20;;;;;;;7.72;100.00;101416.78;2085676;28;20217;-60
2023/10/19 02:26:56;;;;;;;4.50;2.33;;;;;;;7.72;100.00;101404.94;2082629;28;20259;-60
2023/10/19 02:27:56;;;;;;;3.20;1.95;;;;;;;7.69;100.00;101416.78;2071017;28;20317;-61
2023/10/19 02:28:58;;;;;;;4.03;2.30;;;;;;;7.66;100.00;101412.84;2077332;28;20244;-61
2023/10/19 02:29:58;;;;;;;3.42;2.17;;;;;;;7.68;100.00;101409.72;2078516;28;20651;-60
2023/10/19 02:31:10;;;;;;;7.80;2.40;;;;;;;7.28;100.00;101363.94;2087446;28;20539;-60
2023/10/19 02:32:11;;;;;;;5.03;2.03;;;;;;;7.23;100.00;101345.03;2081413;28;20173;-60
2023/10/19 02:33:11;;;;;;;5.17;1.93;;;;;;;7.70;100.00;101416.38;2085802;28;20299;-61
2023/10/19 02:34:14;;;;;;;3.23;2.17;;;;;;;7.70;100.00;101416.38;2087264;28;20244;-61
2023/10/19 02:35:15;;;;;;;3.95;2.20;;;;;;;7.69;100.00;101414.81;2078244;28;20228;-61
2023/10/19 02:36:19;;;;;;;7.33;2.50;;;;;;;7.67;100.00;101414.41;2078229;28;20189;-61
2023/10/19 02:37:19;;;;;;;3.67;2.25;;;;;;;7.64;100.00;101409.69;2087222;28;20184;-60
2023/10/19 02:38:22;;;;;;;6.00;2.23;;;;;;;7.41;100.00;101373.44;2087579;28;20185;-60
2023/10/19 02:39:28;;;;;;;3.42;2.05;;;;;;;7.72;100.00;101416.78;2077007;28;20196;-61
2023/10/19 02:40:31;;;;;;;3.85;2.08;;;;;;;7.72;100.00;101410.47;2075147;28;20173;-60
2023/10/19 02:41:35;;;;;;;4.35;2.17;;;;;;;7.70;100.00;101410.09;2087352;28;20276;-60
2023/10/19 02:42:35;;;;;;;3.55;2.20;;;;;;;7.70;100.00;101410.09;2088038;28;20177;-60
2023/10/19 02:43:38;;;;;;;3.20;1.97;;;;;;;7.31;100.00;101360.41;2087873;28;20183;-60
2023/10/19 02:44:38;;;;;;;5.57;2.35;;;;;;;7.69;100.00;101409.28;2078454;28;20250;-60
2023/10/19 02:45:39;;;;;;;4.47;2.00;;;;;;;7.71;100.00;101412.47;2078329;28;20743;-61
2023/10/19 02:46:41;;;;;;;3.40;2.27;;;;;;;7.74;100.00;101410.88;2086777;28;20281;-61
2023/10/19 02:47:43;;;;;;;5.50;2.53;;;;;;;7.11;100.00;101306.84;2083096;28;20194;-61
2023/10/19 02:48:44;;;;;;;3.22;1.55;;;;;;;7.78;100.00;101409.69;2078246;28;20204;-60
2023/10/19 02:49:51;;;;;;;2.63;1.80;;;;;;;7.81;100.00;101416.38;2080577;28;20173;-61
2023/10/19 02:50:51;;;;;;;3.53;1.88;;;;;;;7.84;100.00;101408.09;2087079;28;20188;-61
2023/10/19 02:51:53;;;;;;;3.27;1.97;;;;;;;7.84;100.00;101419.16;2088077;28;20176;-61
2023/10/19 02:52:53;;;;;;;6.93;2.13;;;;;;;7.85;100.00;101406.91;2088944;28;20257;-60
2023/10/19 02:53:54;;;;;;;6.43;2.23;;;;;;;7.88;100.00;101406.16;2087164;28;20185;-60
2023/10/19 02:54:56;;;;;;;7.23;2.27;;;;;;;7.83;100.00;101401.03;2086904;28;20200;-61
2023/10/19 02:55:59;;;;;;;3.30;2.20;;;;;;;7.76;100.00;101390.00;2087404;28;20222;-61
2023/10/19 02:57:00;;;;;;;4.28;1.98;;;;;;;7.93;100.00;101418.75;2087490;28;20194;-60
2023/10/19 02:58:00;;;;;;;2.10;1.70;;;;;;;7.81;100.00;101397.06;2087562;28;20618;-60
2023/10/19 02:59:03;;;;;;;6.93;2.23;;;;;;;7.95;100.00;101411.66;2086874;28;20180;-60
2023/10/19 03:00:13;;;;;;;3.60;1.80;;;;;;;7.98;100.00;101423.88;2087386;28;20725;-60
2023/10/19 03:01:24;;;;;;;3.33;1.80;;;;;;;8.01;100.00;101429.41;2087062;28;20677;-60
2023/10/19 03:02:28;;;;;;;3.53;2.10;;;;;;;7.83;100.00;101397.47;2085825;28;20181;-60
2023/10/19 03:03:30;;;;;;;3.00;1.75;;;;;;;8.03;100.00;101423.47;2070086;28;20170;-60
2023/10/19 03:04:35;;;;;;;3.92;2.22;;;;;;;8.03;100.00;101412.44;2079344;28;20666;-60
2023/10/19 03:05:35;;;;;;;3.30;2.08;;;;;;;8.06;100.00;101411.66;2087603;28;20740;-59
2023/10/19 03:06:36;;;;;;;2.30;1.57;;;;;;;8.05;100.00;101405.31;2086717;28;20685;-60
2023/10/19 03:07:38;;;;;;;3.13;1.75;;;;;;;8.05;100.00;101407.31;2087244;28;20164;-61
2023/10/19 03:08:39;;;;;;;2.47;1.67;;;;;;;8.02;100.00;101408.09;2087240;28;20658;-61
2023/10/19 03:09:39;;;;;;;6.47;2.43;;;;;;;7.92;100.00;101406.94;2087109;28;20650;-60
2023/10/19 03:10:43;;;;;;;3.57;1.80;;;;;;;7.54;100.00;101347.03;2087093;28;20533;-60
2023/10/19 03:11:44;;;;;;;7.47;2.20;;;;;;;7.84;100.00;101402.59;2079476;28;20239;-60
2023/10/19 03:12:44;;;;;;;5.03;1.95;;;;;;;7.92;100.00;101389.56;2086248;28;20224;-59
2023/10/19 03:13:45;;;;;;;3.13;2.03;;;;;;;7.91;100.00;101386.03;2087775;28;20713;-60
2023/10/19 03:14:49;;;;;;;3.30;1.93;;;;;;;7.49;100.00;101316.31;2087092;28;20204;-60
2023/10/19 03:15:49;;;;;;;4.57;1.63;;;;;;;7.67;100.00;101352.94;2087715;28;20579;-60
2023/10/19 03:16:50;;;;;;;2.37;1.70;;;;;;;7.77;100.00;101372.25;2074652;28;20214;-60
2023/10/19 03:17:50;;;;;;;5.53;1.97;;;;;;;7.85;100.00;101389.59;2069235;28;20191;-63
2023/10/19 03:18:51;;;;;;;3.47;1.50;;;;;;;7.90;100.00;101391.94;2082359;28;20544;-60
2023/10/19 03:19:52;;;;;;;3.70;1.87;;;;;;;7.90;100.00;101384.44;2086952;28;20201;-60
2023/10/19 03:20:52;;;;;;;4.17;2.47;;;;;;;7.91;100.00;101383.28;2087974;28;20245;-60
2023/10/19 03:21:55;;;;;;;5.57;2.23;;;;;;;7.87;100.00;101387.22;2088683;28;20183;-60
2023/10/19 03:22:59;;;;;;;6.15;2.03;;;;;;;7.83;100.00;101395.50;2079904;28;20188;-63
2023/10/19 03:24:12;;;;;;;5.07;1.95;;;;;;;7.63;100.00;101363.97;2086460;28;20222;-63
2023/10/19 03:26:36;;;;;;;4.45;2.15;;;;;;;7.84;100.00;101388.03;2087316;28;20162;-59
2023/10/19 03:27:37;;;;;;;2.78;1.63;;;;;;;7.82;100.00;101380.13;2088092;28;20173;-59
2023/10/19 03:28:38;;;;;;;6.07;1.80;;;;;;;7.79;100.00;101378.16;2087465;28;20184;-60
2023/10/19 03:29:53;;;;;;;15.87;3.20;;;;;;;7.77;100.00;101376.97;2086811;28;20278;-60
2023/10/19 03:30:55;;;;;;;20.35;2.90;;;;;;;7.76;100.00;101369.88;2086553;28;20589;-60
2023/10/19 03:31:55;;;;;;;15.73;2.97;;;;;;;7.73;100.00;101365.94;2087301;28;20684;-59
2023/10/19 03:32:56;;;;;;;5.37;2.10;;;;;;;7.62;100.00;101365.16;2086888;28;20778;-60
2023/10/19 03:34:02;;;;;;;3.72;1.98;;;;;;;7.47;100.00;101346.22;2087037;28;20230;-60
2023/10/19 03:35:04;;;;;;;3.15;2.22;;;;;;;7.69;100.00;101380.94;2087365;28;20588;-59
2023/10/19 03:36:05;;;;;;;3.00;2.17;;;;;;;7.64;100.00;101362.78;2087027;28;20175;-59
2023/10/19 03:37:07;;;;;;;2.53;1.70;;;;;;;7.69;100.00;101367.13;2087201;28;20181;-60
2023/10/19 03:38:14;;;;;;;3.20;2.00;;;;;;;7.43;100.00;101326.16;2086888;28;20576;-60
2023/10/19 03:39:14;;;;;;;3.35;1.60;;;;;;;7.70;100.00;101361.19;2087047;28;20814;-60
2023/10/19 03:40:25;;;;;;;3.53;2.03;;;;;;;7.69;100.00;101362.38;2087753;28;20830;-60
2023/10/19 03:41:26;;;;;;;2.95;1.75;;;;;;;7.71;100.00;101373.84;2079401;28;20503;-60
2023/10/19 03:42:32;;;;;;;4.03;2.20;;;;;;;7.12;100.00;101269.81;2087323;28;20569;-59
2023/10/19 03:43:34;;;;;;;3.50;2.30;;;;;;;7.77;100.00;101366.72;2087101;28;20207;-60
2023/10/19 03:44:53;;;;;;;5.13;2.53;;;;;;;7.60;100.00;101359.25;2087248;28;20644;-60
2023/10/19 03:45:54;;;;;;;3.28;2.00;;;;;;;7.72;100.00;101375.41;2086957;28;20299;-59
2023/10/19 03:47:01;;;;;;;6.13;1.98;;;;;;;7.66;100.00;101367.91;2087291;28;20645;-59
2023/10/19 03:48:06;;;;;;;7.78;2.08;;;;;;;7.43;100.00;101334.44;2087231;28;20227;-59
2023/10/19 03:49:11;;;;;;;4.47;2.70;;;;;;;7.54;100.00;101365.56;2086938;28;20699;-60
2023/10/19 03:50:20;;;;;;;3.95;2.17;;;;;;;7.60;100.00;101363.97;2086624;28;20179;-60
2023/10/19 03:51:24;;;;;;;5.13;1.65;;;;;;;7.57;100.00;101371.06;2086963;28;20203;-68
2023/10/19 03:52:30;;;;;;;6.18;1.92;;;;;;;7.24;100.00;101329.28;2076445;28;20200;-64
2023/10/19 03:53:31;;;;;;;3.33;2.03;;;;;;;7.62;100.00;101389.97;2076483;28;20203;-64
2023/10/19 03:54:33;;;;;;;6.00;1.95;;;;;;;7.52;100.00;101359.63;2085350;28;20212;-64
2023/10/19 03:55:38;;;;;;;3.50;1.05;;;;;;;8.55;100.00;101394.97;2086021;28;20188;-59
2023/10/19 03:56:38;;;;;;;1.25;0.90;;;;;;;10.38;100.00;101395.28;2086192;28;20181;-60
2023/10/19 03:57:46;;;;;;;3.73;2.37;;;;;;;10.93;100.00;101391.06;2086171;28;20172;-67
2023/10/19 03:58:50;;;;;;;5.00;2.60;;;;;;;10.53;100.00;101382.84;2086924;28;20665;-68
2023/10/19 03:59:57;;;;;;;5.55;2.33;;;;;;;10.19;100.00;101371.75;2070157;28;20317;-66
2023/10/19 04:01:01;;;;;;;4.53;2.58;;;;;;;9.95;100.00;101372.75;2078588;28;20594;-67
2023/10/19 04:02:09;;;;;;;4.05;2.03;;;;;;;9.80;100.00;101357.47;2085283;28;20277;-65
2023/10/19 04:03:11;;;;;;;6.18;2.15;;;;;;;9.67;100.00;101350.88;2076960;28;20204;-65
2023/10/19 04:04:13;;;;;;;4.30;2.13;;;;;;;9.35;100.00;101314.38;2075540;28;20273;-66
2023/10/19 04:05:22;;;;;;;3.55;2.20;;;;;;;9.56;100.00;101352.94;2085642;28;20528;-62
2023/10/19 04:06:22;;;;;;;8.93;2.13;;;;;;;9.50;100.00;101348.25;2085631;28;20254;-61
2023/10/19 04:07:25;;;;;;;3.43;2.17;;;;;;;9.30;100.00;101325.88;2076197;28;20445;-62
2023/10/19 04:08:26;;;;;;;5.17;2.40;;;;;;;8.81;100.00;101254.34;2069341;28;20199;-62
2023/10/19 04:09:29;;;;;;;4.60;2.10;;;;;;;9.37;100.00;101344.41;2076084;28;20874;-62
2023/10/19 04:10:30;;;;;;;6.23;2.47;;;;;;;9.31;100.00;101346.81;2085603;28;20461;-63
2023/10/19 04:11:48;;;;;;;6.10;2.83;;;;;;;9.32;100.00;101340.06;2085897;28;20425;-62
2023/10/19 04:12:48;;;;;;;7.50;2.37;;;;;;;9.30;100.00;101341.66;2085621;28;20643;-61
2023/10/19 04:13:55;;;;;;;7.80;3.23;;;;;;;9.28;100.00;101341.31;2085660;28;20427;-61
2023/10/19 04:14:56;;;;;;;5.15;2.60;;;;;;;9.27;100.00;101331.44;2085265;28;20189;-61
2023/10/19 04:15:57;;;;;;;5.57;2.67;;;;;;;9.22;100.00;101329.88;2084487;28;20705;-62
2023/10/19 04:16:59;;;;;;;3.77;2.40;;;;;;;8.56;100.00;101237.13;2085740;28;20278;-64
2023/10/19 04:18:00;;;;;;;4.97;2.47;;;;;;;9.23;100.00;101334.22;2085971;28;20195;-63
2023/10/19 04:19:04;;;;;;;6.17;2.57;;;;;;;9.23;100.00;101336.97;2085629;28;21013;-63
2023/10/19 04:20:54;;;;;;;6.77;2.30;;;;;;;9.21;100.00;101333.03;2085462;28;20935;-64
2023/10/19 04:21:28;;;;;;;5.50;2.38;;;;;;;9.18;100.00;101336.63;2075715;28;20445;-63
2023/10/19 04:22:30;;;;;;;14.70;3.30;;;;;;;9.07;100.00;101324.88;2090123;28;20200;-63
2023/10/19 04:23:34;;;;;;;5.73;2.73;;;;;;;8.77;100.00;101283.97;2079960;28;20197;-64
2023/10/19 04:24:35;;;;;;;6.40;2.77;;;;;;;9.19;100.00;101338.19;2076541;28;20442;-62
2023/10/19 04:25:36;;;;;;;15.93;2.93;;;;;;;9.19;100.00;101347.28;2085398;28;20701;-60
2023/10/19 04:26:37;;;;;;;5.30;2.43;;;;;;;9.21;100.00;101355.97;2085502;28;20206;-60
2023/10/19 04:27:37;;;;;;;4.10;2.67;;;;;;;9.18;100.00;101345.69;2087423;28;20598;-60
2023/10/19 04:28:44;;;;;;;5.57;2.73;;;;;;;9.17;100.00;101352.44;2085720;28;20439;-61
2023/10/19 04:29:45;;;;;;;9.40;2.40;;;;;;;8.92;100.00;101310.31;2092749;28;20244;-60
2023/10/19 04:30:45;;;;;;;3.83;2.40;;;;;;;9.21;100.00;101344.91;2086489;28;20523;-61
2023/10/19 04:31:55;;;;;;;4.50;2.43;;;;;;;9.22;100.00;101354.00;2086086;28;20221;-61
2023/10/19 04:32:57;;;;;;;3.63;2.53;;;;;;;9.19;100.00;101341.75;2088419;28;20192;-60
2023/10/19 04:33:57;;;;;;;3.47;2.30;;;;;;;9.17;100.00;101344.13;2088328;28;20503;-65
2023/10/19 04:34:58;;;;;;;7.90;3.43;;;;;;;9.14;100.00;101339.44;2084777;28;20602;-59
2023/10/19 04:36:00;;;;;;;3.50;2.50;;;;;;;9.03;100.00;101313.03;2082302;28;20179;-59
2023/10/19 04:37:03;;;;;;;6.65;3.25;;;;;;;9.10;100.00;101329.56;2085769;28;20210;-64
2023/10/19 04:38:06;;;;;;;6.07;2.20;;;;;;;9.14;100.00;101331.13;2083311;28;20212;-59
2023/10/19 04:39:11;;;;;;;10.55;3.50;;;;;;;9.15;100.00;101341.00;2089383;28;20424;-61
2023/10/19 04:40:12;;;;;;;6.27;4.10;;;;;;;9.14;100.00;101336.66;2084474;28;20262;-63
2023/10/19 04:41:12;;;;;;;4.73;3.43;;;;;;;9.12;100.00;101344.56;2091146;28;20926;-62
2023/10/19 04:42:14;;;;;;;9.40;4.30;;;;;;;9.10;100.00;101346.94;2079667;28;20205;-64
2023/10/19 04:43:16;;;;;;;8.73;4.03;;;;;;;8.72;100.00;101284.38;2076313;28;20286;-63
2023/10/19 04:44:17;;;;;;;7.93;3.65;;;;;;;9.15;100.00;101349.28;2074909;28;21008;-63
2023/10/19 04:45:18;;;;;;;6.30;2.80;;;;;;;9.13;100.00;101351.66;2080792;28;20303;-63
2023/10/19 04:46:18;;;;;;;10.95;3.25;;;;;;;9.10;100.00;101346.94;2070167;28;20193;-63
2023/10/19 04:47:19;;;;;;;5.93;2.77;;;;;;;9.09;100.00;101341.81;2058700;28;20722;-63
2023/10/19 04:48:19;;;;;;;8.77;3.13;;;;;;;9.09;100.00;101333.53;2076088;28;20594;-63
2023/10/19 04:49:20;;;;;;;9.67;3.07;;;;;;;9.07;100.00;101327.63;2082287;28;20188;-63
2023/10/19 04:50:21;;;;;;;5.43;3.27;;;;;;;8.96;100.00;101315.84;2083425;28;20180;-63
2023/10/19 04:51:21;;;;;;;5.07;3.10;;;;;;;9.01;100.00;101341.06;2074417;28;20556;-63
2023/10/19 04:52:21;;;;;;;4.87;3.17;;;;;;;8.93;100.00;101322.19;2075446;28;20344;-63
2023/10/19 04:53:22;;;;;;;9.63;3.40;;;;;;;9.03;100.00;101337.91;2075003;28;20721;-63
2023/10/19 04:54:22;;;;;;;4.50;3.00;;;;;;;8.89;100.00;101321.41;2084402;28;20229;-63
2023/10/19 04:55:23;;;;;;;8.37;3.40;;;;;;;9.04;100.00;101343.03;2086926;28;20224;-63
2023/10/19 04:56:23;;;;;;;10.33;4.50;;;;;;;8.27;100.00;101218.34;2076566;28;20206;-63
2023/10/19 04:57:24;;;;;;;20.03;4.47;;;;;;;9.07;100.00;101361.56;2082653;28;20212;-63
2023/10/19 04:58:24;;;;;;;8.23;4.17;;;;;;;9.12;100.00;101338.25;2071824;28;20323;-63
2023/10/19 04:59:25;;;;;;;6.60;4.00;;;;;;;9.13;100.00;101348.13;2074969;28;20251;-63
2023/10/19 05:00:27;;;;;;;9.27;3.90;;;;;;;9.12;100.00;101338.25;2071233;28;20992;-63
2023/10/19 05:01:28;;;;;;;8.10;3.88;;;;;;;9.12;100.00;101329.97;2046605;28;20318;-63
2023/10/19 05:02:29;;;;;;;7.03;4.70;;;;;;;9.22;100.00;101345.69;2067423;28;20798;-62
2023/10/19 05:03:30;;;;;;;9.33;4.87;;;;;;;9.27;100.00;101356.34;2063832;28;20613;-65